Estación Meteorológica Peña el Pijo (Robertgarden) [ 12/06/23 10:35:17 CET ]

Fecha Hora Presion(HPa) Temp (°C) Humedad % Rocio (°C) Viento ( m/s) Direccion Lluvia 1Hora(mm) Lluvia 24H(mm) LLuvia Total(mm)
2008-Oct-11 01:05:12 1017.300 13.8 91 12.4 3.6 NE   19.16 31.59
2008-Oct-11 02:05:37 1016.500 13.4 91 12.0       19.16 31.59
2008-Oct-11 03:05:51 1016.300 13.3 92 12.0 1.4 N 0.51 19.68 32.11
2008-Oct-11 04:05:47 1016.000 13.0 93 11.9     0.51 17.61 32.63
2008-Oct-11 05:05:32 1015.300 12.9 95 12.1     1.03 17.09 33.67
2008-Oct-11 06:05:14 1014.700 12.8 95 12.0 1.1 NNE 3.10 19.16 36.77
2008-Oct-11 07:05:37 1014.200 13.1 96 12.5     2.07 20.72 38.85
2008-Oct-11 08:05:14 1014.500 13.4 96 12.8     4.66 21.23 43.51
2008-Oct-11 09:05:18 1015.000 14.9 95 14.1 0.9 NE 1.03 20.72 44.54
2008-Oct-11 10:05:11 1014.800 15.4 93 14.3     1.55 21.75 46.10
2008-Oct-11 11:05:24 1015.000 15.5 94 14.5 0.5 ENE 2.59 23.31 48.69
2008-Oct-11 12:05:13 1015.600 16.3 90 14.7     0.51 21.23 49.21
2008-Oct-11 13:05:16 1015.300 16.7 90 15.1     7.25 26.93 56.46
2008-Oct-11 14:05:38 1015.000 16.4 91 15.0 1.7 ENE   25.90 56.46
2008-Oct-11 15:05:19 1014.600 16.5 89 14.7 0.9 SSW   25.90 56.46
2008-Oct-11 16:05:21 1014.300 17.9 85 15.3 2.1 NW   25.90 56.46
2008-Oct-11 17:05:13 1014.700 18.6 78 14.7       25.90 56.46
2008-Oct-11 18:05:14 1014.900 18.5 79 14.8 2.8 ESE   25.90 56.46
2008-Oct-11 19:05:25 1015.200 16.7 85 14.2 5.3 ENE   25.90 56.46
2008-Oct-11 20:05:14 1016.100 16.5 85 14.0       25.38 56.46
2008-Oct-11 21:05:16 1016.500 16.6 84 13.9       25.38 56.46
2008-Oct-11 22:05:15 1016.700 16.4 83 13.5       24.86 56.46
2008-Oct-11 23:05:16 1017.500 16.4 85 13.9       24.86 56.46

Temperatura Máxima:18°    Temperatura Mínima:12°
Presión Máxima:1017.500 Hpa    Presión Mínima:1014.200 Hpa


Volver